createdAt,value
2022-09-28T00:01:17.568Z,5.78
2022-09-28T00:03:47.467Z,5.22
2022-09-28T00:06:18.498Z,6.40
2022-09-28T00:08:46.837Z,5.60
2022-09-28T00:11:16.373Z,7.20
2022-09-28T00:13:46.085Z,8.70
2022-09-28T00:16:16.866Z,6.22
2022-09-28T00:18:47.532Z,6.32
2022-09-28T00:21:17.348Z,6.03
2022-09-28T00:23:59.849Z,7.47
2022-09-28T00:26:28.599Z,6.63
2022-09-28T00:28:58.568Z,6.07
2022-09-28T00:31:26.945Z,5.97
2022-09-28T00:33:56.968Z,6.68
2022-09-28T00:36:27.009Z,7.68
2022-09-28T00:38:55.636Z,5.90
2022-09-28T00:41:24.371Z,5.43
2022-09-28T00:43:52.444Z,8.18
2022-09-28T00:46:24.934Z,7.20
2022-09-28T00:51:27.419Z,5.80
2022-09-28T00:53:57.051Z,8.30
2022-09-28T00:56:28.098Z,5.85
2022-09-28T00:58:56.065Z,6.72
2022-09-28T01:01:24.101Z,9.07
2022-09-28T01:03:52.136Z,8.70
2022-09-28T01:06:22.568Z,7.18
2022-09-28T01:08:54.912Z,6.72
2022-09-28T01:11:22.904Z,8.57
2022-09-28T01:13:53.345Z,9.57
2022-09-28T01:16:30.893Z,7.57
2022-09-28T01:19:07.923Z,9.25
2022-09-28T01:21:47.165Z,8.43
2022-09-28T01:24:40.240Z,9.43
2022-09-28T01:27:15.923Z,7.90
2022-09-28T01:29:55.409Z,8.40
2022-09-28T01:32:44.645Z,10.25
2022-09-28T01:35:16.294Z,8.48
2022-09-28T01:37:52.011Z,10.60
2022-09-28T01:40:22.188Z,9.60
2022-09-28T01:42:56.328Z,10.23
2022-09-28T01:45:28.525Z,11.48
2022-09-28T01:47:59.639Z,10.93
2022-09-28T01:50:31.418Z,12.25
2022-09-28T01:53:04.793Z,11.70
2022-09-28T01:55:35.706Z,11.35
2022-09-28T01:58:12.574Z,8.38
2022-09-28T02:00:45.689Z,9.10
2022-09-28T02:03:18.647Z,10.35
2022-09-28T02:05:50.543Z,12.23
2022-09-28T02:08:25.397Z,10.40
2022-09-28T02:10:59.197Z,10.60
2022-09-28T02:13:33.949Z,12.93
2022-09-28T02:16:08.091Z,15.98
2022-09-28T02:18:36.164Z,14.05
2022-09-28T02:21:09.883Z,14.52
2022-09-28T02:23:41.054Z,16.65
2022-09-28T02:26:13.312Z,16.77
2022-09-28T02:28:42.605Z,17.58
2022-09-28T02:31:10.354Z,19.45
2022-09-28T02:33:40.926Z,17.42
2022-09-28T02:36:08.860Z,17.67
2022-09-28T02:38:37.410Z,20.38
2022-09-28T02:41:10.106Z,17.58
2022-09-28T02:43:50.310Z,20.48
2022-09-28T02:46:30.443Z,20.00
2022-09-28T02:49:21.872Z,18.92
2022-09-28T02:52:09.229Z,17.13
2022-09-28T02:55:11.520Z,19.30
2022-09-28T02:57:53.137Z,20.13
2022-09-28T03:00:23.940Z,21.20
2022-09-28T03:03:03.079Z,19.27
2022-09-28T03:05:36.705Z,19.77
2022-09-28T03:08:07.879Z,20.70
2022-09-28T03:10:41.355Z,17.80
2022-09-28T03:13:10.132Z,20.70
2022-09-28T03:15:39.226Z,21.67
2022-09-28T03:18:07.043Z,22.15
2022-09-28T03:20:35.281Z,19.85
2022-09-28T03:25:50.641Z,22.80
2022-09-28T03:28:18.403Z,22.23
2022-09-28T03:30:47.482Z,23.42
2022-09-28T03:33:15.105Z,24.65
2022-09-28T03:35:42.764Z,22.08
2022-09-28T03:38:10.425Z,22.35
2022-09-28T03:40:38.088Z,21.30
2022-09-28T03:43:05.790Z,23.00
2022-09-28T03:45:33.437Z,23.85
2022-09-28T03:48:02.748Z,22.33
2022-09-28T03:50:30.437Z,21.08
2022-09-28T03:53:03.362Z,23.38
2022-09-28T03:55:31.353Z,18.85
2022-09-28T03:57:59.033Z,21.88
2022-09-28T04:00:26.674Z,25.45
2022-09-28T04:02:55.082Z,24.90
2022-09-28T04:05:24.197Z,18.17
2022-09-28T04:07:53.254Z,20.48
2022-09-28T04:10:20.896Z,16.95
2022-09-28T04:12:49.741Z,20.30
2022-09-28T04:15:17.942Z,18.30
2022-09-28T04:17:45.768Z,20.23
2022-09-28T04:20:13.389Z,22.05
2022-09-28T04:22:43.109Z,22.42
2022-09-28T04:25:10.878Z,20.50
2022-09-28T04:27:56.672Z,22.95
2022-09-28T04:30:24.680Z,17.33
2022-09-28T04:32:52.324Z,18.83
2022-09-28T04:35:20.026Z,19.10
2022-09-28T04:37:49.023Z,17.38
2022-09-28T04:40:16.753Z,16.70
2022-09-28T04:42:44.651Z,17.90
2022-09-28T04:45:12.344Z,24.63
2022-09-28T04:47:40.102Z,23.63
2022-09-28T04:50:08.662Z,22.38
2022-09-28T04:52:37.325Z,24.40
2022-09-28T04:55:07.402Z,18.88
2022-09-28T04:57:35.335Z,18.20
2022-09-28T05:00:03.215Z,21.63
2022-09-28T05:02:30.901Z,18.63
2022-09-28T05:04:58.932Z,24.38
2022-09-28T05:07:26.899Z,21.80
2022-09-28T05:09:55.270Z,19.52
2022-09-28T05:12:24.484Z,23.73
2022-09-28T05:14:52.282Z,24.50
2022-09-28T05:17:20.078Z,24.63
2022-09-28T05:19:47.740Z,22.15
2022-09-28T05:22:15.841Z,21.73
2022-09-28T05:24:43.689Z,26.42
2022-09-28T05:27:11.433Z,23.90
2022-09-28T05:29:40.466Z,23.10
2022-09-28T05:32:08.209Z,18.55
2022-09-28T05:34:35.979Z,21.05
2022-09-28T05:37:03.675Z,21.10
2022-09-28T05:39:31.342Z,19.83
2022-09-28T05:41:59.079Z,22.83
2022-09-28T05:44:26.882Z,26.15
2022-09-28T05:46:55.938Z,26.98
2022-09-28T05:49:23.640Z,28.10
2022-09-28T05:51:51.270Z,27.08
2022-09-28T05:54:18.996Z,21.30
2022-09-28T05:56:46.815Z,21.45
2022-09-28T05:59:14.505Z,21.83
2022-09-28T06:01:42.338Z,23.05
2022-09-28T06:04:11.443Z,21.58
2022-09-28T06:06:39.356Z,27.77
2022-09-28T06:09:07.072Z,29.75
2022-09-28T06:11:34.895Z,21.65
2022-09-28T06:14:02.574Z,21.98
2022-09-28T06:16:30.662Z,26.40
2022-09-28T06:18:58.418Z,25.58
2022-09-28T06:21:27.646Z,21.98
2022-09-28T06:23:55.271Z,23.50
2022-09-28T06:26:22.917Z,23.63
2022-09-28T06:28:50.573Z,24.60
2022-09-28T06:31:23.554Z,20.83
2022-09-28T06:33:52.221Z,21.02
2022-09-28T06:36:21.359Z,22.13
2022-09-28T06:38:50.683Z,19.30
2022-09-28T06:41:18.501Z,17.95
2022-09-28T06:43:46.489Z,21.80
2022-09-28T06:46:14.906Z,17.98
2022-09-28T06:48:44.287Z,19.48
2022-09-28T06:51:12.177Z,19.50
2022-09-28T06:53:39.832Z,16.60
2022-09-28T06:56:11.396Z,17.33
2022-09-28T06:58:39.212Z,16.30
2022-09-28T07:01:07.164Z,17.50
2022-09-28T07:03:34.872Z,16.70
2022-09-28T07:06:02.692Z,14.38
2022-09-28T07:08:30.462Z,15.02
2022-09-28T07:10:58.139Z,14.02
2022-09-28T07:13:48.468Z,12.25
2022-09-28T07:16:17.062Z,14.10
2022-09-28T07:18:44.886Z,13.27
2022-09-28T07:21:23.865Z,15.48
2022-09-28T07:23:54.676Z,14.23
2022-09-28T07:26:24.482Z,12.93
2022-09-28T07:28:55.806Z,12.60
2022-09-28T07:31:25.221Z,12.95
2022-09-28T07:33:54.050Z,13.55
2022-09-28T07:36:22.707Z,11.65
2022-09-28T07:38:50.540Z,11.07
2022-09-28T07:41:22.321Z,11.80
2022-09-28T07:43:50.820Z,11.32
2022-09-28T07:46:21.213Z,12.45
2022-09-28T07:48:51.778Z,11.80
2022-09-28T07:51:21.116Z,12.65
2022-09-28T07:53:49.127Z,13.55
2022-09-28T07:56:18.224Z,12.82
2022-09-28T07:58:48.163Z,11.80
2022-09-28T08:01:16.584Z,9.75
2022-09-28T08:03:47.998Z,11.68
2022-09-28T08:06:17.773Z,11.18
2022-09-28T08:08:46.015Z,9.55
2022-09-28T08:11:15.154Z,9.90
2022-09-28T08:13:43.915Z,10.43
2022-09-28T08:16:11.883Z,9.30
2022-09-28T08:18:39.632Z,10.75
2022-09-28T08:21:26.194Z,9.48
2022-09-28T08:23:53.943Z,7.70
2022-09-28T08:26:21.749Z,7.80
2022-09-28T08:28:49.423Z,8.18
2022-09-28T08:31:17.128Z,8.93
2022-09-28T08:33:45.080Z,8.60
2022-09-28T08:36:14.144Z,10.05
2022-09-28T08:38:41.805Z,8.80
2022-09-28T08:41:18.468Z,9.50
2022-09-28T08:44:15.518Z,8.63
2022-09-28T08:46:47.716Z,8.75
2022-09-28T08:49:25.469Z,10.40
2022-09-28T08:51:59.010Z,10.75
2022-09-28T08:54:34.845Z,9.80
2022-09-28T08:57:06.628Z,9.23
2022-09-28T08:59:46.426Z,9.30
2022-09-28T09:02:19.200Z,9.13
2022-09-28T09:04:47.140Z,8.98
2022-09-28T09:07:33.199Z,7.70
2022-09-28T09:10:12.703Z,7.65
2022-09-28T09:12:48.396Z,6.85
2022-09-28T09:15:48.129Z,6.38
2022-09-28T09:18:26.136Z,5.78
2022-09-28T09:20:57.524Z,5.18
2022-09-28T09:23:37.231Z,5.90
2022-09-28T09:26:14.668Z,5.47
2022-09-28T09:29:18.334Z,6.00
2022-09-28T09:32:04.338Z,5.68
2022-09-28T09:34:49.077Z,7.57
2022-09-28T09:37:26.426Z,7.97
2022-09-28T09:40:16.244Z,8.77
2022-09-28T09:42:58.001Z,8.27
2022-09-28T09:45:43.856Z,7.80
2022-09-28T09:48:18.935Z,6.95
2022-09-28T09:50:51.564Z,7.30
2022-09-28T09:53:25.275Z,6.82
2022-09-28T09:55:57.392Z,5.45
2022-09-28T09:58:29.611Z,6.18
2022-09-28T10:01:03.117Z,6.07
2022-09-28T10:03:34.062Z,6.28
2022-09-28T10:06:07.406Z,6.35
2022-09-28T10:08:40.743Z,6.38
2022-09-28T10:11:16.518Z,6.72
2022-09-28T10:13:44.806Z,6.63
2022-09-28T10:16:12.720Z,6.00
2022-09-28T10:18:40.502Z,6.00
2022-09-28T10:21:12.645Z,4.22
2022-09-28T10:23:42.177Z,4.45
2022-09-28T10:26:14.620Z,4.43
2022-09-28T10:31:40.111Z,4.10
2022-09-28T10:34:09.198Z,3.30
2022-09-28T10:36:48.615Z,3.05
2022-09-28T10:39:31.278Z,2.60
2022-09-28T10:44:34.640Z,2.03
2022-09-28T10:47:04.215Z,2.72
2022-09-28T10:49:45.861Z,3.03
2022-09-28T10:55:03.630Z,2.75
2022-09-28T10:57:35.729Z,2.75
2022-09-28T11:00:06.927Z,2.40
2022-09-28T11:02:37.402Z,2.30
2022-09-28T11:05:08.171Z,2.40
2022-09-28T11:07:46.306Z,6.00
2022-09-28T11:10:22.314Z,4.85
2022-09-28T11:12:52.771Z,5.32
2022-09-28T11:15:22.324Z,5.32
2022-09-28T11:17:50.088Z,5.40
2022-09-28T11:20:35.956Z,5.47
2022-09-28T11:23:20.517Z,5.78
2022-09-28T11:26:05.710Z,5.85
2022-09-28T11:28:37.839Z,6.20
2022-09-28T11:31:08.329Z,6.88
2022-09-28T11:33:38.384Z,7.40
2022-09-28T11:36:28.353Z,5.07
2022-09-28T11:39:06.393Z,4.70
2022-09-28T11:42:00.533Z,4.72
2022-09-28T11:44:46.516Z,4.53
2022-09-28T11:47:37.808Z,3.92
2022-09-28T11:50:17.850Z,4.18
2022-09-28T11:52:56.106Z,4.30
2022-09-28T11:55:34.465Z,4.10
2022-09-28T11:58:09.857Z,3.72
2022-09-28T12:00:46.520Z,3.90
2022-09-28T12:03:17.310Z,4.20
2022-09-28T12:05:49.551Z,4.13
2022-09-28T12:08:25.416Z,3.88
2022-09-28T12:10:59.377Z,3.58
2022-09-28T12:13:35.376Z,13.52
2022-09-28T12:16:32.656Z,4.47
2022-09-28T12:19:08.187Z,3.80
2022-09-28T12:21:43.701Z,2.90
2022-09-28T12:24:18.779Z,4.03
2022-09-28T12:27:13.867Z,3.10
2022-09-28T12:29:47.492Z,4.30
2022-09-28T12:32:29.405Z,3.10
2022-09-28T12:34:58.684Z,3.53
2022-09-28T12:37:41.324Z,4.05
2022-09-28T12:43:33.971Z,2.80
2022-09-28T12:46:20.786Z,2.70
2022-09-28T12:52:18.970Z,2.75
2022-09-28T12:55:04.751Z,2.60
2022-09-28T12:57:42.010Z,2.22
2022-09-28T13:00:13.228Z,2.40
2022-09-28T13:03:03.077Z,2.10
2022-09-28T13:05:49.427Z,2.33
2022-09-28T13:08:27.040Z,2.25
2022-09-28T13:11:08.019Z,1.85
2022-09-28T13:13:48.458Z,1.95
2022-09-28T13:16:23.800Z,1.60
2022-09-28T13:18:58.772Z,1.60
2022-09-28T13:21:37.961Z,1.67
2022-09-28T13:24:28.186Z,1.60
2022-09-28T13:27:00.494Z,2.00
2022-09-28T13:29:29.025Z,1.90
2022-09-28T13:32:00.191Z,2.20
2022-09-28T13:34:30.569Z,2.20
2022-09-28T13:37:24.027Z,2.45
2022-09-28T13:39:53.098Z,3.80
2022-09-28T13:43:02.403Z,3.15
2022-09-28T13:45:40.003Z,3.90
2022-09-28T13:48:15.673Z,4.07
2022-09-28T13:51:05.777Z,3.92
2022-09-28T13:53:54.010Z,5.75
2022-09-28T13:56:31.219Z,4.65
2022-09-28T13:59:05.270Z,5.05
2022-09-28T14:01:38.610Z,3.90
2022-09-28T14:04:16.663Z,5.00
2022-09-28T14:06:51.396Z,8.32
2022-09-28T14:09:42.703Z,6.75
2022-09-28T14:12:46.955Z,8.30
2022-09-28T14:15:45.163Z,15.93
2022-09-28T14:18:32.606Z,19.27
2022-09-28T14:21:30.835Z,15.02
2022-09-28T14:24:13.181Z,8.85
2022-09-28T14:27:04.968Z,7.82
2022-09-28T14:29:35.239Z,7.03
2022-09-28T14:32:06.747Z,7.72
2022-09-28T14:34:38.046Z,8.75
2022-09-28T14:37:38.385Z,5.95
2022-09-28T14:40:35.538Z,6.45
2022-09-28T14:43:28.058Z,7.43
2022-09-28T14:46:34.024Z,4.38
2022-09-28T14:49:03.237Z,7.05
2022-09-28T14:52:04.079Z,7.50
2022-09-28T14:54:42.858Z,5.97
2022-09-28T14:57:18.291Z,3.20
2022-09-28T14:59:48.154Z,3.70
2022-09-28T15:02:21.285Z,2.35
2022-09-28T15:04:53.110Z,1.92
2022-09-28T15:07:24.421Z,1.63
2022-09-28T15:09:53.828Z,2.10
2022-09-28T15:12:25.221Z,2.90
2022-09-28T15:14:57.237Z,4.80
2022-09-28T15:17:28.135Z,4.30
2022-09-28T15:20:25.286Z,3.20
2022-09-28T15:22:57.498Z,2.85
2022-09-28T15:25:27.395Z,2.30
2022-09-28T15:27:57.033Z,3.90
2022-09-28T15:30:28.871Z,6.53
2022-09-28T15:33:17.778Z,5.10
2022-09-28T15:35:47.745Z,3.38
2022-09-28T15:38:18.370Z,4.80
2022-09-28T15:40:47.628Z,3.22
2022-09-28T15:43:26.894Z,3.10
2022-09-28T15:46:02.906Z,2.53
2022-09-28T15:48:32.808Z,2.60
2022-09-28T15:51:11.033Z,2.80
2022-09-28T15:53:46.392Z,2.92
2022-09-28T15:56:53.103Z,3.22
2022-09-28T15:59:35.665Z,2.88
2022-09-28T16:02:12.621Z,3.47
2022-09-28T16:04:44.233Z,3.00
2022-09-28T16:07:20.698Z,3.60
2022-09-28T16:10:04.729Z,3.00
2022-09-28T16:12:43.359Z,2.45
2022-09-28T16:15:20.168Z,1.98
2022-09-28T16:17:54.715Z,1.50
2022-09-28T16:20:29.142Z,1.40
2022-09-28T16:22:59.540Z,1.10
2022-09-28T16:25:27.970Z,1.17
2022-09-28T16:27:56.850Z,0.98
2022-09-28T16:30:27.163Z,1.20
2022-09-28T16:32:58.146Z,1.60
2022-09-28T16:35:28.704Z,1.90
2022-09-28T16:38:05.664Z,1.70
2022-09-28T16:40:34.410Z,3.33
2022-09-28T16:43:05.458Z,2.95
2022-09-28T16:45:35.132Z,2.47
2022-09-28T16:48:05.492Z,2.70
2022-09-28T16:50:33.230Z,2.28
2022-09-28T16:53:25.028Z,2.40
2022-09-28T16:55:52.754Z,2.40
2022-09-28T16:58:20.393Z,1.90
2022-09-28T17:00:48.065Z,2.78
2022-09-28T17:03:19.314Z,4.30
2022-09-28T17:05:50.917Z,3.40
2022-09-28T17:08:21.608Z,3.10
2022-09-28T17:13:42.169Z,5.78
2022-09-28T17:16:14.114Z,5.00
2022-09-28T17:18:43.332Z,3.88
2022-09-28T17:21:15.749Z,3.00
2022-09-28T17:26:19.415Z,2.30
2022-09-28T17:28:47.180Z,2.53
2022-09-28T17:31:16.257Z,2.75
2022-09-28T17:33:45.845Z,3.33
2022-09-28T17:36:16.733Z,2.70
2022-09-28T17:38:45.055Z,4.25
2022-09-28T17:41:18.070Z,3.63
2022-09-28T17:43:48.046Z,3.63
2022-09-28T17:46:28.309Z,3.92
2022-09-28T17:48:59.653Z,5.10
2022-09-28T17:51:28.333Z,4.40
2022-09-28T17:53:56.843Z,5.20
2022-09-28T17:56:27.498Z,5.15
2022-09-28T17:59:00.812Z,7.47
2022-09-28T18:01:33.707Z,5.03
2022-09-28T18:04:05.261Z,4.20
2022-09-28T18:06:33.879Z,7.28
2022-09-28T18:09:02.782Z,6.32
2022-09-28T18:11:30.805Z,7.40
2022-09-28T18:13:58.527Z,7.20
2022-09-28T18:16:27.901Z,6.65
2022-09-28T18:18:55.776Z,7.72
2022-09-28T18:21:24.838Z,5.88
2022-09-28T18:23:52.475Z,5.10
2022-09-28T18:26:20.284Z,6.68
2022-09-28T18:28:48.150Z,8.35
2022-09-28T18:31:19.106Z,6.07
2022-09-28T18:33:48.300Z,5.60
2022-09-28T18:36:15.977Z,9.43
2022-09-28T18:38:45.079Z,9.20
2022-09-28T18:41:15.774Z,10.13
2022-09-28T18:43:44.177Z,5.95
2022-09-28T18:46:12.745Z,7.68
2022-09-28T18:48:41.598Z,11.52
2022-09-28T18:51:10.156Z,7.38
2022-09-28T18:53:38.040Z,6.78
2022-09-28T18:56:09.362Z,10.95
2022-09-28T18:58:37.951Z,6.70
2022-09-28T19:01:28.911Z,12.45
2022-09-28T19:03:59.806Z,7.55
2022-09-28T19:06:27.544Z,11.07
2022-09-28T19:08:56.780Z,12.85
2022-09-28T19:11:26.758Z,8.25
2022-09-28T19:13:55.322Z,9.80
2022-09-28T19:16:25.100Z,8.25
2022-09-28T19:18:53.635Z,8.48
2022-09-28T19:21:22.170Z,9.07
2022-09-28T19:23:50.220Z,20.58
2022-09-28T19:26:20.394Z,16.20
2022-09-28T19:28:50.012Z,16.02
2022-09-28T19:31:18.364Z,15.30
2022-09-28T19:33:46.724Z,20.70
2022-09-28T19:36:17.703Z,11.88
2022-09-28T19:38:46.241Z,13.00
2022-09-28T19:41:39.471Z,17.55
2022-09-28T19:44:15.770Z,21.30
2022-09-28T19:46:43.724Z,12.90
2022-09-28T19:49:13.375Z,21.40
2022-09-28T19:51:56.555Z,11.23
2022-09-28T19:54:36.323Z,20.33
2022-09-28T19:57:07.432Z,12.27
2022-09-28T19:59:37.376Z,20.10
2022-09-28T20:02:06.423Z,20.55
2022-09-28T20:04:34.191Z,14.23
2022-09-28T20:07:02.097Z,13.93
2022-09-28T20:09:29.803Z,13.93
2022-09-28T20:11:57.532Z,19.20
2022-09-28T20:14:27.906Z,15.07
2022-09-28T20:16:59.671Z,13.35
2022-09-28T20:19:42.367Z,22.58
2022-09-28T20:22:10.075Z,24.30
2022-09-28T20:24:37.832Z,15.15
2022-09-28T20:27:05.660Z,15.48
2022-09-28T20:29:33.755Z,23.00
2022-09-28T20:32:03.886Z,15.75
2022-09-28T20:34:33.451Z,15.43
2022-09-28T20:37:01.277Z,14.23
2022-09-28T20:39:29.235Z,15.60
2022-09-28T20:41:57.641Z,14.45
2022-09-28T20:44:25.379Z,20.38
2022-09-28T20:46:53.250Z,15.95
2022-09-28T20:49:22.319Z,23.85
2022-09-28T20:51:49.995Z,23.98
2022-09-28T20:54:17.727Z,17.30
2022-09-28T20:56:48.009Z,17.00
2022-09-28T20:59:15.758Z,20.00
2022-09-28T21:01:43.498Z,14.93
2022-09-28T21:04:11.807Z,14.32
2022-09-28T21:06:42.647Z,11.00
2022-09-28T21:09:12.270Z,12.43
2022-09-28T21:11:40.243Z,15.93
2022-09-28T21:14:10.097Z,13.52
2022-09-28T21:16:38.628Z,16.23
2022-09-28T21:19:06.361Z,12.73
2022-09-28T21:21:34.408Z,12.30
2022-09-28T21:24:03.555Z,20.63
2022-09-28T21:26:32.664Z,12.43
2022-09-28T21:29:01.829Z,12.40
2022-09-28T21:31:32.461Z,17.60
2022-09-28T21:34:00.674Z,17.60
2022-09-28T21:36:28.371Z,15.02
2022-09-28T21:38:56.193Z,20.70
2022-09-28T21:41:26.153Z,21.73
2022-09-28T21:43:53.878Z,22.20
2022-09-28T21:46:21.880Z,14.55
2022-09-28T21:48:53.343Z,18.67
2022-09-28T21:51:21.548Z,23.08
2022-09-28T21:53:49.657Z,11.77
2022-09-28T21:56:17.732Z,19.15
2022-09-28T21:58:47.266Z,11.57
2022-09-28T22:01:18.147Z,11.13
2022-09-28T22:03:47.903Z,20.55
2022-09-28T22:06:17.039Z,20.27
2022-09-28T22:08:44.874Z,17.80
2022-09-28T22:11:14.723Z,13.82
2022-09-28T22:13:43.922Z,16.38
2022-09-28T22:16:14.605Z,23.33
2022-09-28T22:18:42.889Z,22.33
2022-09-28T22:21:17.775Z,17.33
2022-09-28T22:23:46.117Z,20.65
2022-09-28T22:26:17.972Z,17.77
2022-09-28T22:28:47.773Z,21.23
2022-09-28T22:31:18.492Z,24.77
2022-09-28T22:33:46.382Z,26.85
2022-09-28T22:36:20.020Z,23.73
2022-09-28T22:38:49.372Z,21.65
2022-09-28T22:41:21.005Z,25.02
2022-09-28T22:43:50.081Z,16.70
2022-09-28T22:46:20.792Z,23.40
2022-09-28T22:48:49.645Z,23.02
2022-09-28T22:51:17.971Z,25.42
2022-09-28T22:53:46.320Z,24.25
2022-09-28T22:56:18.638Z,25.88
2022-09-28T22:58:47.209Z,17.63
2022-09-28T23:01:17.794Z,16.10
2022-09-28T23:03:47.322Z,22.50
2022-09-28T23:06:17.047Z,22.27
2022-09-28T23:08:45.467Z,20.90
2022-09-28T23:11:13.176Z,16.17
2022-09-28T23:13:40.853Z,18.70
2022-09-28T23:16:11.675Z,16.13
2022-09-28T23:18:40.808Z,21.05
2022-09-28T23:21:15.156Z,18.33
2022-09-28T23:23:42.947Z,14.43
2022-09-28T23:26:12.219Z,18.42
2022-09-28T23:28:39.982Z,22.27
2022-09-28T23:31:12.211Z,20.88
2022-09-28T23:33:40.037Z,26.85
2022-09-28T23:36:10.072Z,22.45
2022-09-28T23:38:38.118Z,18.25
2022-09-28T23:41:06.088Z,22.27
2022-09-28T23:43:33.839Z,15.52
2022-09-28T23:46:01.745Z,21.08
2022-09-28T23:48:29.482Z,21.27
2022-09-28T23:50:57.157Z,16.85
2022-09-28T23:53:26.280Z,17.05
2022-09-28T23:55:54.367Z,15.95
2022-09-28T23:58:22.465Z,17.05
